Time;durP1;ratioP1;P1;durP2;ratioP2;P2;SDS_P1;SDS_P2;PMS_P1;PMS_P2;Temp;Humidity;BMP_temperature;BMP_pressure;BME280_temperature;BME280_humidity;BME280_pressure;Samples;Min_cycle;Max_cycle;Signal;HPM_P1;HPM_P2
2024/01/18 00:00:13;;;;;;;4.47;4.07;;;;;;;19.31;44.35;94754.94;5051602;28;20311;-28
2024/01/18 00:02:40;;;;;;;4.60;4.20;;;;;;;19.30;44.15;94748.97;5050142;28;20678;-29
2024/01/18 00:05:07;;;;;;;4.40;4.00;;;;;;;19.29;44.15;94752.38;5049824;28;20201;-28
2024/01/18 00:07:34;;;;;;;4.40;4.00;;;;;;;19.31;44.45;94755.78;5050861;28;20224;-33
2024/01/18 00:10:01;;;;;;;4.97;4.20;;;;;;;19.31;44.25;94750.69;5051544;28;20220;-28
2024/01/18 00:12:27;;;;;;;4.27;3.87;;;;;;;19.30;44.10;94745.59;5051719;28;20231;-28
2024/01/18 00:14:54;;;;;;;4.37;3.97;;;;;;;19.32;44.18;94754.91;5051720;28;20259;-27
2024/01/18 00:17:21;;;;;;;4.60;4.13;;;;;;;19.32;44.10;94759.16;5050829;28;20295;-31
2024/01/18 00:19:47;;;;;;;4.40;4.00;;;;;;;19.32;43.82;94742.19;5050964;28;20711;-27
2024/01/18 00:22:14;;;;;;;4.30;3.90;;;;;;;19.33;44.23;94755.78;5051336;28;20204;-28
2024/01/18 00:24:41;;;;;;;4.23;3.90;;;;;;;19.33;44.21;94763.41;5045013;28;20201;-28
2024/01/18 00:27:07;;;;;;;3.90;3.53;;;;;;;19.32;44.15;94751.50;5050600;28;20217;-27
2024/01/18 00:29:34;;;;;;;4.10;3.70;;;;;;;19.32;44.32;94752.38;5050552;28;20245;-32
2024/01/18 00:32:01;;;;;;;4.27;3.87;;;;;;;19.32;44.13;94761.69;5051320;28;20207;-26
2024/01/18 00:34:27;;;;;;;4.60;4.17;;;;;;;19.31;44.11;94752.38;5050864;28;20633;-30
2024/01/18 00:36:54;;;;;;;4.10;3.70;;;;;;;19.30;44.04;94764.25;5044646;28;20209;-31
2024/01/18 00:39:21;;;;;;;3.87;3.57;;;;;;;19.32;44.09;94769.34;5050861;28;20228;-29
2024/01/18 00:41:47;;;;;;;4.47;3.63;;;;;;;19.30;44.21;94765.97;5050423;28;20201;-30
2024/01/18 00:44:14;;;;;;;3.67;3.37;;;;;;;19.31;44.31;94770.19;5051561;28;20221;-28
2024/01/18 00:46:41;;;;;;;4.03;3.63;;;;;;;19.30;44.46;94766.81;5050667;28;20209;-27
2024/01/18 00:49:07;;;;;;;4.43;3.47;;;;;;;19.30;44.20;94768.53;5051121;28;20251;-29
2024/01/18 00:51:34;;;;;;;3.70;3.40;;;;;;;19.29;44.11;94772.75;5051074;28;20254;-30
2024/01/18 00:54:02;;;;;;;4.03;3.63;;;;;;;19.31;44.00;94772.75;5035687;28;20205;-29
2024/01/18 00:56:29;;;;;;;3.50;3.03;;;;;;;19.32;44.05;94776.97;5051716;28;20193;-31
2024/01/18 00:58:56;;;;;;;3.40;3.10;;;;;;;19.31;44.14;94777.84;5051402;28;20252;-26
2024/01/18 01:01:22;;;;;;;3.90;3.37;;;;;;;19.31;44.23;94781.25;5050093;28;20232;-30
2024/01/18 01:03:49;;;;;;;4.23;3.47;;;;;;;19.32;44.16;94779.53;5047493;28;20295;-29
2024/01/18 01:06:16;;;;;;;3.67;3.00;;;;;;;19.33;44.26;94786.31;5051465;28;20250;-27
2024/01/18 01:08:43;;;;;;;3.30;3.00;;;;;;;19.32;43.84;94785.47;5048393;28;20221;-31
2024/01/18 01:11:09;;;;;;;3.30;3.00;;;;;;;19.32;44.31;94792.25;5049505;28;20204;-28
2024/01/18 01:13:36;;;;;;;3.20;2.90;;;;;;;19.32;43.89;94794.81;5051137;28;20232;-26
2024/01/18 01:16:02;;;;;;;3.57;3.20;;;;;;;19.31;44.19;94793.97;5047152;28;20202;-27
2024/01/18 01:18:29;;;;;;;3.23;2.93;;;;;;;19.31;44.25;94798.22;5048721;28;20259;-27
2024/01/18 01:20:56;;;;;;;3.50;3.20;;;;;;;19.30;44.20;94810.09;5054367;28;20205;-31
2024/01/18 01:23:23;;;;;;;3.03;2.80;;;;;;;19.29;44.21;94802.44;5053943;28;20204;-27
2024/01/18 01:25:49;;;;;;;3.53;3.20;;;;;;;19.29;44.34;94802.44;5054492;28;20637;-26
2024/01/18 01:28:16;;;;;;;3.37;3.00;;;;;;;19.30;44.17;94811.81;5054289;28;20764;-31
2024/01/18 01:30:43;;;;;;;2.80;2.60;;;;;;;19.29;44.42;94805.00;5054447;28;20600;-35
2024/01/18 01:33:09;;;;;;;3.23;2.93;;;;;;;19.29;44.32;94820.28;5049293;28;20206;-28
2024/01/18 01:35:36;;;;;;;3.10;2.80;;;;;;;19.30;44.18;94820.28;5054839;28;20213;-27
2024/01/18 01:38:03;;;;;;;3.20;2.87;;;;;;;19.29;44.25;94813.50;5054124;28;20201;-26
2024/01/18 01:40:29;;;;;;;3.33;3.03;;;;;;;19.30;44.32;94807.53;5054756;28;20217;-29
2024/01/18 01:42:56;;;;;;;2.73;2.53;;;;;;;19.31;44.05;94813.50;5052995;28;20236;-27
2024/01/18 01:45:23;;;;;;;2.70;2.50;;;;;;;19.30;44.20;94805.00;5053700;28;20211;-26
2024/01/18 01:47:50;;;;;;;3.07;2.77;;;;;;;19.31;44.01;94814.34;5054544;28;20220;-26
2024/01/18 01:50:17;;;;;;;3.10;2.80;;;;;;;19.31;44.13;94816.88;5054415;28;20632;-29
2024/01/18 01:52:44;;;;;;;3.20;2.90;;;;;;;19.23;44.22;94805.84;5069236;28;20674;-26
2024/01/18 01:55:12;;;;;;;2.90;2.70;;;;;;;19.28;44.01;94813.50;5053752;28;20208;-28
2024/01/18 01:57:40;;;;;;;2.90;2.60;;;;;;;19.31;44.29;94821.13;5052587;28;20221;-30
2024/01/18 02:00:07;;;;;;;2.60;2.40;;;;;;;19.30;44.32;94822.81;5048874;28;20303;-30
2024/01/18 02:02:34;;;;;;;2.80;2.60;;;;;;;19.30;44.19;94827.09;5069503;28;20205;-27
2024/01/18 02:05:01;;;;;;;2.63;2.43;;;;;;;19.29;44.38;94827.91;5051730;28;20713;-27
2024/01/18 02:07:28;;;;;;;3.20;2.90;;;;;;;19.28;44.04;94822.00;5049075;28;20222;-28
2024/01/18 02:09:55;;;;;;;3.00;2.70;;;;;;;19.28;44.40;94824.53;5052687;28;20225;-26
2024/01/18 02:12:24;;;;;;;2.90;2.70;;;;;;;19.28;44.25;94823.69;5049503;28;20229;-26
2024/01/18 02:14:50;;;;;;;2.97;2.70;;;;;;;19.28;44.46;94832.19;5053910;28;20354;-26
2024/01/18 02:17:17;;;;;;;2.63;2.43;;;;;;;19.28;44.22;94822.00;5051634;28;20193;-26
2024/01/18 02:19:43;;;;;;;2.47;2.27;;;;;;;19.30;44.09;94827.09;5053809;28;20252;-32
2024/01/18 02:22:10;;;;;;;2.70;2.50;;;;;;;19.22;44.16;94808.41;5053801;28;20575;-26
2024/01/18 02:24:58;;;;;;;2.40;2.20;;;;;;;19.30;44.03;94827.09;5051810;28;20205;-28
2024/01/18 02:27:25;;;;;;;2.33;2.13;;;;;;;19.30;44.23;94815.19;5048659;28;20204;-26
2024/01/18 02:29:52;;;;;;;2.83;2.60;;;;;;;19.30;44.15;94822.00;5052332;28;20299;-30
2024/01/18 02:32:19;;;;;;;2.80;2.60;;;;;;;19.30;44.26;94816.91;5052054;28;20236;-27
2024/01/18 02:34:45;;;;;;;2.67;2.47;;;;;;;19.29;44.21;94816.03;5050122;28;20215;-27
2024/01/18 02:37:12;;;;;;;2.40;2.20;;;;;;;19.29;44.27;94816.03;5052896;28;20227;-28
2024/01/18 02:39:39;;;;;;;2.33;2.13;;;;;;;19.28;44.22;94814.34;5053145;28;20580;-30
2024/01/18 02:42:05;;;;;;;2.50;2.30;;;;;;;19.28;44.42;94813.50;5053377;28;20204;-28
2024/01/18 02:44:32;;;;;;;2.50;2.30;;;;;;;19.27;44.18;94811.81;5049556;28;20594;-26
2024/01/18 02:46:59;;;;;;;2.27;2.00;;;;;;;19.28;43.74;94813.50;5051727;28;20193;-26
2024/01/18 02:49:25;;;;;;;2.40;2.20;;;;;;;19.26;44.63;94813.47;5053587;28;20266;-33
2024/01/18 02:51:52;;;;;;;2.10;1.90;;;;;;;19.27;44.20;94807.56;5052451;28;20207;-28
2024/01/18 02:54:18;;;;;;;2.70;2.40;;;;;;;19.27;44.38;94810.09;5052915;28;20266;-29
2024/01/18 02:56:45;;;;;;;2.60;2.40;;;;;;;19.28;44.19;94818.59;5046883;28;20251;-26
2024/01/18 02:59:12;;;;;;;2.67;2.30;;;;;;;19.27;43.96;94812.66;5052447;28;20220;-29
2024/01/18 03:01:38;;;;;;;2.40;2.20;;;;;;;19.29;44.15;94817.72;5052974;28;20581;-27
2024/01/18 03:04:05;;;;;;;2.37;2.17;;;;;;;19.29;44.22;94822.81;5048284;28;20660;-32
2024/01/18 03:06:31;;;;;;;2.60;2.40;;;;;;;19.30;44.11;94814.34;5051518;28;20474;-26
2024/01/18 03:08:58;;;;;;;2.40;2.20;;;;;;;19.30;44.13;94814.34;5050717;28;20227;-29
2024/01/18 03:11:25;;;;;;;2.13;2.03;;;;;;;19.30;43.86;94814.34;5073131;23;20228;-23
2024/01/18 03:13:52;;;;;;;2.43;2.23;;;;;;;19.30;44.83;94806.72;5070141;28;20258;-23
2024/01/18 03:16:18;;;;;;;2.40;2.20;;;;;;;19.30;44.39;94811.81;5070514;28;20639;-22
2024/01/18 03:18:46;;;;;;;2.30;2.10;;;;;;;19.29;43.77;94808.41;5071776;28;20311;-23
2024/01/18 03:21:13;;;;;;;2.43;2.23;;;;;;;19.29;44.34;94805.84;5070342;28;20285;-24
2024/01/18 03:23:40;;;;;;;2.17;1.97;;;;;;;19.28;44.31;94799.09;5069683;28;20235;-24
2024/01/18 03:26:07;;;;;;;2.07;1.87;;;;;;;19.27;44.21;94797.38;5068700;28;20204;-23
2024/01/18 03:28:34;;;;;;;1.93;1.83;;;;;;;19.28;44.30;94805.88;5051599;28;20224;-23
2024/01/18 03:31:01;;;;;;;2.07;1.90;;;;;;;19.28;44.18;94803.31;5070417;28;20239;-23
2024/01/18 03:33:27;;;;;;;2.60;2.40;;;;;;;19.26;44.17;94805.84;5070546;28;20211;-24
2024/01/18 03:35:54;;;;;;;2.33;2.13;;;;;;;19.26;44.28;94810.94;5071243;28;20236;-24
2024/01/18 03:38:21;;;;;;;2.10;2.00;;;;;;;19.27;44.20;94814.38;5070090;28;20204;-23
2024/01/18 03:40:47;;;;;;;2.30;2.10;;;;;;;19.27;44.26;94806.72;5070147;28;20277;-24
2024/01/18 03:43:14;;;;;;;1.80;1.70;;;;;;;19.27;44.34;94805.00;5068469;28;20204;-24
2024/01/18 03:45:41;;;;;;;2.23;2.10;;;;;;;19.28;44.11;94808.41;5070549;28;20215;-24
2024/01/18 03:48:07;;;;;;;2.50;1.97;;;;;;;19.28;44.17;94799.09;5070125;28;20307;-23
2024/01/18 03:50:34;;;;;;;2.30;2.10;;;;;;;19.29;44.33;94805.00;5070699;28;20231;-23
2024/01/18 03:53:01;;;;;;;2.23;2.03;;;;;;;19.28;44.13;94799.09;5069884;28;20204;-24
2024/01/18 03:55:27;;;;;;;1.90;1.80;;;;;;;19.28;44.28;94799.09;5069293;28;20242;-23
2024/01/18 03:57:54;;;;;;;2.23;2.03;;;;;;;19.28;44.19;94804.16;5071008;28;20208;-23
2024/01/18 04:00:20;;;;;;;2.40;2.20;;;;;;;19.27;44.27;94801.63;5061646;28;20282;-23
2024/01/18 04:02:47;;;;;;;2.20;2.00;;;;;;;19.28;44.40;94803.31;5071211;28;20579;-23
2024/01/18 04:05:13;;;;;;;2.67;2.30;;;;;;;19.27;44.22;94812.66;5069610;28;20216;-24
2024/01/18 04:07:40;;;;;;;2.20;2.00;;;;;;;19.27;44.29;94815.19;5070072;28;20208;-24
2024/01/18 04:10:10;;;;;;;1.80;1.70;;;;;;;19.28;44.29;94821.13;5069522;28;20200;-23
2024/01/18 04:12:37;;;;;;;2.00;1.90;;;;;;;19.26;44.33;94818.56;5069748;28;20202;-23
2024/01/18 04:15:05;;;;;;;1.93;1.80;;;;;;;19.26;44.32;94813.47;5069017;28;20207;-23
2024/01/18 04:17:32;;;;;;;2.07;1.97;;;;;;;19.27;44.25;94819.47;5069197;28;20655;-24
2024/01/18 04:19:59;;;;;;;2.10;1.90;;;;;;;19.26;44.39;94813.47;5068977;28;20211;-22
2024/01/18 04:22:26;;;;;;;1.90;1.80;;;;;;;19.24;44.28;94811.78;5069422;28;20211;-22
2024/01/18 04:24:53;;;;;;;1.90;1.80;;;;;;;19.26;44.21;94816.03;5069054;28;20288;-23
2024/01/18 04:27:20;;;;;;;2.03;1.93;;;;;;;19.28;44.28;94818.59;5067566;28;20292;-23
2024/01/18 04:29:46;;;;;;;2.00;1.90;;;;;;;19.28;44.37;94819.44;5069627;28;20216;-23
2024/01/18 04:32:13;;;;;;;1.70;1.60;;;;;;;19.28;44.28;94823.69;5069745;28;20208;-24
2024/01/18 04:34:40;;;;;;;1.80;1.70;;;;;;;19.28;44.10;94822.00;5070754;28;20646;-23
2024/01/18 04:37:06;;;;;;;2.30;2.10;;;;;;;19.28;44.27;94818.59;5070245;28;20208;-24
2024/01/18 04:39:33;;;;;;;2.00;1.90;;;;;;;19.28;44.40;94814.34;5067011;28;20204;-24
2024/01/18 04:42:00;;;;;;;1.70;1.60;;;;;;;19.28;44.69;94811.81;5070441;28;20303;-23
2024/01/18 04:44:26;;;;;;;2.10;1.90;;;;;;;19.27;44.35;94817.72;5068586;28;20258;-24
2024/01/18 04:46:53;;;;;;;1.87;1.77;;;;;;;19.27;44.20;94814.38;5070297;28;20291;-23
2024/01/18 04:49:19;;;;;;;1.97;1.83;;;;;;;19.27;44.39;94816.91;5069650;28;20936;-24
2024/01/18 04:51:46;;;;;;;1.90;1.80;;;;;;;19.27;44.35;94811.81;5069449;28;20216;-24
2024/01/18 04:54:13;;;;;;;2.03;1.90;;;;;;;19.27;44.35;94816.91;5073231;28;20203;-24
2024/01/18 04:56:40;;;;;;;2.00;1.90;;;;;;;19.28;44.27;94823.69;5074086;28;20207;-24
2024/01/18 04:59:08;;;;;;;1.70;1.60;;;;;;;19.29;44.24;94825.38;5073552;28;20224;-22
2024/01/18 05:01:39;;;;;;;1.70;1.60;;;;;;;19.29;44.35;94822.81;5071306;28;20224;-24
2024/01/18 05:04:06;;;;;;;1.90;1.80;;;;;;;19.31;44.29;94823.66;5072000;28;20696;-24
2024/01/18 05:06:32;;;;;;;2.40;2.20;;;;;;;19.31;44.44;94823.66;5074015;28;20287;-23
2024/01/18 05:08:59;;;;;;;1.90;1.80;;;;;;;19.31;44.18;94829.63;5073893;28;20594;-23
2024/01/18 05:11:26;;;;;;;1.80;1.70;;;;;;;18.65;44.17;94709.44;5073687;28;20325;-23
2024/01/18 05:13:52;;;;;;;1.70;1.60;;;;;;;19.32;44.40;94830.44;5074074;28;20271;-23
2024/01/18 05:16:19;;;;;;;1.80;1.70;;;;;;;19.32;44.31;94833.84;5072608;28;20292;-24
2024/01/18 05:18:46;;;;;;;1.80;1.70;;;;;;;19.32;43.72;94831.31;5073284;28;20287;-23
2024/01/18 05:21:12;;;;;;;1.80;1.70;;;;;;;19.33;44.42;94821.97;5072431;28;20220;-23
2024/01/18 05:23:39;;;;;;;1.80;1.70;;;;;;;18.63;44.23;94711.13;5071875;28;20216;-24
2024/01/18 05:26:05;;;;;;;1.70;1.60;;;;;;;19.32;44.22;94831.31;5070829;28;20209;-24
2024/01/18 05:28:32;;;;;;;1.67;1.57;;;;;;;19.31;44.22;94837.25;5072951;28;20220;-23
2024/01/18 05:30:59;;;;;;;1.90;1.80;;;;;;;19.30;44.22;94829.63;5072481;28;20246;-24
2024/01/18 05:33:27;;;;;;;1.90;1.80;;;;;;;19.29;44.25;94831.31;5072614;28;20200;-23
2024/01/18 05:35:53;;;;;;;1.83;1.73;;;;;;;19.29;44.22;94833.00;5073200;28;20254;-23
2024/01/18 05:38:20;;;;;;;2.60;1.63;;;;;;;19.23;44.18;94821.13;5073856;28;20647;-24
2024/01/18 05:40:47;;;;;;;1.93;1.77;;;;;;;19.29;44.21;94833.00;5073423;28;20220;-24
2024/01/18 05:43:13;;;;;;;1.93;1.80;;;;;;;19.28;44.36;94832.19;5072897;28;20674;-23
2024/01/18 05:45:40;;;;;;;1.80;1.70;;;;;;;19.28;44.31;94829.63;5073063;28;20283;-24
2024/01/18 05:48:07;;;;;;;1.90;1.80;;;;;;;19.28;44.34;94829.63;5072816;28;20204;-23
2024/01/18 05:50:33;;;;;;;2.00;1.80;;;;;;;19.28;44.25;94828.78;5073205;28;20698;-23
2024/01/18 05:53:00;;;;;;;2.10;1.90;;;;;;;19.28;44.34;94828.78;5071999;28;20204;-23
2024/01/18 05:55:27;;;;;;;1.70;1.60;;;;;;;19.28;44.27;94824.53;5071792;28;20232;-23
2024/01/18 05:57:53;;;;;;;2.10;1.50;;;;;;;19.28;44.40;94829.63;5073239;28;20232;-24
2024/01/18 06:00:20;;;;;;;1.63;1.53;;;;;;;19.29;44.26;94823.69;5072636;28;20231;-23
2024/01/18 06:02:47;;;;;;;1.90;1.80;;;;;;;19.29;44.33;94820.28;5072883;28;20226;-24
2024/01/18 06:05:13;;;;;;;1.97;1.77;;;;;;;19.27;44.39;94822.00;5072293;28;20232;-24
2024/01/18 06:07:40;;;;;;;3.67;1.90;;;;;;;19.27;44.32;94827.09;5072935;28;20204;-24
2024/01/18 06:10:07;;;;;;;2.30;1.87;;;;;;;19.26;44.28;94825.34;5072272;28;20247;-28
2024/01/18 06:12:33;;;;;;;1.80;1.70;;;;;;;19.26;44.23;94826.22;5072037;28;20200;-24
2024/01/18 06:15:01;;;;;;;1.70;1.60;;;;;;;19.26;44.07;94827.91;5071685;28;20201;-24
2024/01/18 06:17:28;;;;;;;1.70;1.60;;;;;;;19.25;44.30;94838.94;5070875;28;20204;-24
2024/01/18 06:19:55;;;;;;;1.80;1.70;;;;;;;19.25;44.30;94828.75;5072524;28;20250;-24
2024/01/18 06:22:21;;;;;;;1.50;1.40;;;;;;;19.24;44.00;94815.16;5070878;28;20208;-24
2024/01/18 06:24:48;;;;;;;1.57;1.47;;;;;;;19.24;44.12;94824.50;5071806;28;20659;-24
2024/01/18 06:27:14;;;;;;;1.70;1.60;;;;;;;19.22;44.45;94824.50;5072303;28;20204;-24
2024/01/18 06:29:41;;;;;;;1.77;1.67;;;;;;;19.23;44.43;94828.75;5071240;28;20562;-24
2024/01/18 06:32:08;;;;;;;1.80;1.70;;;;;;;19.18;44.28;94819.44;5068539;28;20661;-24
2024/01/18 06:34:34;;;;;;;1.70;1.60;;;;;;;19.22;44.40;94824.50;5071311;28;20232;-24
2024/01/18 06:37:01;;;;;;;1.80;1.70;;;;;;;19.25;44.43;94823.66;5071904;28;20207;-23
2024/01/18 06:39:28;;;;;;;1.73;1.63;;;;;;;19.25;44.29;94827.06;5071074;28;20254;-24
2024/01/18 06:41:54;;;;;;;1.63;1.53;;;;;;;19.25;44.23;94826.22;5071770;28;20220;-24
2024/01/18 06:44:21;;;;;;;1.80;1.70;;;;;;;19.24;44.42;94824.50;5071205;28;20212;-23
2024/01/18 06:46:48;;;;;;;2.00;1.80;;;;;;;19.24;44.41;94827.03;5072020;28;20636;-23
2024/01/18 06:49:15;;;;;;;1.70;1.60;;;;;;;19.23;44.39;94830.44;5071700;28;20219;-24
2024/01/18 06:51:42;;;;;;;1.90;1.80;;;;;;;19.23;44.82;94822.81;5068117;28;20317;-24
2024/01/18 06:54:09;;;;;;;1.80;1.70;;;;;;;19.23;44.40;94823.69;5068728;28;20250;-24
2024/01/18 06:56:35;;;;;;;1.50;1.40;;;;;;;19.23;44.37;94820.28;5054321;28;20196;-24
2024/01/18 06:59:02;;;;;;;1.90;1.80;;;;;;;19.23;44.20;94827.91;5072696;28;20295;-23
2024/01/18 07:01:29;;;;;;;2.17;1.70;;;;;;;19.22;44.48;94826.22;5070958;28;20223;-23
2024/01/18 07:03:55;;;;;;;1.70;1.60;;;;;;;19.22;44.47;94821.13;5071735;28;20199;-23
2024/01/18 07:06:22;;;;;;;1.70;1.60;;;;;;;19.23;44.00;94817.72;5071584;28;20204;-23
2024/01/18 07:08:50;;;;;;;3.03;1.60;;;;;;;19.22;44.27;94821.13;5071520;28;20701;-24
2024/01/18 07:11:16;;;;;;;1.90;1.70;;;;;;;19.22;44.39;94827.06;5071364;28;20224;-24
2024/01/18 07:13:44;;;;;;;1.80;1.70;;;;;;;19.23;44.95;94825.38;5071107;28;20239;-22
2024/01/18 07:16:11;;;;;;;1.67;1.57;;;;;;;19.22;44.36;94824.50;5070825;28;20659;-24
2024/01/18 07:18:38;;;;;;;1.80;1.70;;;;;;;19.23;44.34;94828.75;5069840;28;20683;-24
2024/01/18 07:21:04;;;;;;;1.93;1.83;;;;;;;19.24;44.47;94822.81;5071525;28;20258;-24
2024/01/18 07:23:31;;;;;;;1.77;1.67;;;;;;;19.24;44.13;94817.72;5071318;28;20289;-23
2024/01/18 07:25:58;;;;;;;1.80;1.70;;;;;;;19.23;44.42;94813.50;5070517;28;20254;-24
2024/01/18 07:28:24;;;;;;;1.70;1.60;;;;;;;19.23;44.27;94823.69;5069829;28;20197;-24
2024/01/18 07:30:51;;;;;;;1.70;1.60;;;;;;;19.21;44.24;94820.28;5070673;28;20307;-24
2024/01/18 07:33:17;;;;;;;1.60;1.50;;;;;;;19.23;44.40;94820.28;5070993;28;20208;-24
2024/01/18 07:35:44;;;;;;;1.73;1.57;;;;;;;19.21;44.36;94819.41;5071180;28;20232;-24
2024/01/18 07:38:11;;;;;;;2.03;1.80;;;;;;;19.20;44.41;94820.28;5070453;28;20250;-23
2024/01/18 07:40:37;;;;;;;1.80;1.70;;;;;;;19.19;44.37;94821.97;5071291;28;20226;-23
2024/01/18 07:43:04;;;;;;;1.60;1.50;;;;;;;19.20;44.51;94807.56;5070060;28;20238;-23
2024/01/18 07:45:31;;;;;;;1.70;1.60;;;;;;;19.19;44.58;94806.69;5070031;28;20211;-24
2024/01/18 07:47:58;;;;;;;1.80;1.70;;;;;;;19.12;44.31;94789.78;5069596;28;20620;-24
2024/01/18 07:50:24;;;;;;;1.60;1.50;;;;;;;19.19;44.49;94799.06;5071238;28;20224;-24
2024/01/18 07:53:02;;;;;;;1.80;1.70;;;;;;;19.18;44.26;94796.53;5069726;28;20223;-27
2024/01/18 07:55:29;;;;;;;1.67;1.57;;;;;;;19.19;44.29;94806.69;5071210;28;20200;-24
2024/01/18 07:57:56;;;;;;;1.80;1.70;;;;;;;19.19;44.20;94808.41;5070710;28;20242;-24
2024/01/18 08:00:23;;;;;;;1.70;1.60;;;;;;;19.20;44.27;94816.06;5069938;28;20212;-23
2024/01/18 08:02:50;;;;;;;1.70;1.60;;;;;;;19.20;44.26;94810.97;5070876;28;20211;-24
2024/01/18 08:05:17;;;;;;;1.80;1.70;;;;;;;19.20;44.44;94805.88;5066652;28;20207;-24
2024/01/18 08:07:44;;;;;;;2.00;1.60;;;;;;;19.20;44.41;94805.00;5067229;28;20678;-24
2024/01/18 08:10:10;;;;;;;1.77;1.67;;;;;;;19.20;44.07;94805.88;5063007;28;20629;-22
2024/01/18 08:12:37;;;;;;;1.40;1.30;;;;;;;19.19;44.32;94806.69;5069960;28;20200;-23
2024/01/18 08:15:04;;;;;;;1.70;1.60;;;;;;;19.19;44.46;94805.88;5070394;28;20230;-23
2024/01/18 08:17:31;;;;;;;1.53;1.43;;;;;;;19.18;44.06;94802.47;5070866;28;20224;-23
2024/01/18 08:19:58;;;;;;;1.73;1.63;;;;;;;19.18;44.50;94804.16;5069922;28;20238;-25
2024/01/18 08:22:25;;;;;;;2.47;1.50;;;;;;;19.17;44.72;94810.97;5070139;28;20204;-23
2024/01/18 08:24:51;;;;;;;1.67;1.57;;;;;;;19.17;44.48;94805.03;5070759;28;20282;-23
2024/01/18 08:27:18;;;;;;;1.40;1.30;;;;;;;19.17;44.28;94805.88;5072813;28;20660;-23
2024/01/18 08:29:45;;;;;;;2.00;1.80;;;;;;;19.17;44.50;94808.44;5073781;28;20230;-23
2024/01/18 08:32:11;;;;;;;1.50;1.40;;;;;;;19.16;44.47;94796.53;5074637;28;20216;-23
2024/01/18 08:34:38;;;;;;;1.50;1.40;;;;;;;19.15;44.36;94791.44;5074924;28;20192;-23
2024/01/18 08:37:07;;;;;;;1.93;1.80;;;;;;;19.15;44.52;94806.72;5074617;28;20290;-25
2024/01/18 08:39:34;;;;;;;1.50;1.40;;;;;;;19.14;44.16;94807.59;5074426;28;20192;-24
2024/01/18 08:42:02;;;;;;;1.60;1.50;;;;;;;19.14;44.14;94810.13;5073908;28;20256;-23
2024/01/18 08:44:29;;;;;;;1.60;1.50;;;;;;;19.14;44.31;94813.53;5073712;28;20200;-24
2024/01/18 08:46:56;;;;;;;1.80;1.70;;;;;;;19.08;44.27;94800.84;5074183;28;20262;-23
2024/01/18 08:49:24;;;;;;;1.60;1.50;;;;;;;19.14;44.28;94805.91;5056493;28;20762;-22
2024/01/18 08:51:52;;;;;;;1.60;1.50;;;;;;;19.13;44.39;94811.81;5068254;28;20231;-22
2024/01/18 08:54:20;;;;;;;1.70;1.60;;;;;;;19.13;44.42;94808.44;5074105;28;20200;-23
2024/01/18 08:56:47;;;;;;;1.60;1.50;;;;;;;19.13;44.57;94813.53;5073762;28;20196;-24
2024/01/18 08:59:14;;;;;;;1.70;1.60;;;;;;;19.13;44.45;94816.09;5074073;28;20245;-23
2024/01/18 09:01:41;;;;;;;1.80;1.70;;;;;;;19.12;44.42;94820.31;5073622;28;20216;-24
2024/01/18 09:04:08;;;;;;;1.47;1.37;;;;;;;19.12;44.58;94811.81;5074137;28;20204;-23
2024/01/18 09:06:36;;;;;;;1.53;1.43;;;;;;;19.12;44.69;94811.81;5073449;28;20204;-23
2024/01/18 09:09:03;;;;;;;1.37;1.27;;;;;;;19.11;44.50;94811.00;5073831;28;20228;-24
2024/01/18 09:11:30;;;;;;;1.80;1.60;;;;;;;19.12;44.33;94806.72;5087210;22;20227;-27
2024/01/18 09:13:58;;;;;;;1.60;1.50;;;;;;;19.14;43.52;94799.94;5074825;28;20200;-27
2024/01/18 09:16:24;;;;;;;1.50;1.40;;;;;;;19.16;44.02;94808.44;5073408;28;20204;-26
2024/01/18 09:18:51;;;;;;;1.60;1.50;;;;;;;19.18;44.30;94811.78;5074895;28;20204;-26
2024/01/18 09:21:43;;;;;;;1.70;1.60;;;;;;;19.18;44.55;94812.66;5071361;28;20216;-26
2024/01/18 09:24:10;;;;;;;1.57;1.47;;;;;;;19.19;44.59;94821.97;5074589;28;20223;-27
2024/01/18 09:26:37;;;;;;;1.60;1.50;;;;;;;19.15;44.18;94817.75;5073060;28;20583;-26
2024/01/18 09:29:04;;;;;;;1.60;1.50;;;;;;;19.21;44.43;94825.38;5074902;28;20227;-26
2024/01/18 09:31:30;;;;;;;1.40;1.30;;;;;;;19.22;44.59;94823.69;5074287;28;20227;-27
2024/01/18 09:34:08;;;;;;;1.60;1.50;;;;;;;19.23;44.83;94833.84;5073581;28;20371;-29
2024/01/18 09:36:34;;;;;;;1.53;1.40;;;;;;;19.24;44.81;94829.59;5073816;28;20208;-26
2024/01/18 09:39:01;;;;;;;1.70;1.60;;;;;;;19.24;44.74;94825.34;5078564;28;20199;-26
2024/01/18 09:41:29;;;;;;;1.57;1.47;;;;;;;19.25;44.75;94831.31;5073127;28;20236;-32
2024/01/18 09:44:03;;;;;;;1.53;1.43;;;;;;;19.26;44.77;94830.44;5073975;28;20199;-27
2024/01/18 09:46:30;;;;;;;1.40;1.30;;;;;;;19.25;44.77;94828.75;5074556;28;20213;-29
2024/01/18 09:48:57;;;;;;;1.60;1.50;;;;;;;19.26;44.57;94832.97;5074996;28;20291;-26
2024/01/18 09:51:29;;;;;;;1.50;1.40;;;;;;;19.26;44.57;94835.53;5073922;28;20251;-35
2024/01/18 09:53:56;;;;;;;1.70;1.60;;;;;;;19.25;44.54;94826.22;5073634;28;20667;-26
2024/01/18 09:56:24;;;;;;;1.20;1.20;;;;;;;19.24;44.63;94830.44;5076941;28;20208;-33
2024/01/18 09:58:51;;;;;;;1.50;1.40;;;;;;;19.27;44.88;94830.47;5073415;28;20254;-26
2024/01/18 10:01:19;;;;;;;1.63;1.40;;;;;;;19.27;44.56;94829.63;5072550;28;20232;-26
2024/01/18 10:03:46;;;;;;;1.50;1.40;;;;;;;19.27;44.62;94835.56;5070938;28;20214;-26
2024/01/18 10:06:13;;;;;;;2.93;1.23;;;;;;;19.29;44.65;94825.38;5068990;28;20285;-31
2024/01/18 10:08:40;;;;;;;1.40;1.30;;;;;;;19.26;44.57;94822.81;5093821;28;20626;-28
2024/01/18 10:11:07;;;;;;;1.57;1.40;;;;;;;19.30;44.56;94825.34;5054380;28;20224;-34
2024/01/18 10:13:52;;;;;;;2.83;1.30;;;;;;;19.30;44.73;94819.44;5070483;28;20269;-29
2024/01/18 10:16:27;;;;;;;1.00;1.00;;;;;;;19.31;44.61;94823.66;5073399;28;20203;-26
2024/01/18 10:18:55;;;;;;;1.67;1.57;;;;;;;19.30;44.89;94824.53;5073734;28;20199;-28
2024/01/18 10:21:23;;;;;;;1.63;1.20;;;;;;;19.29;44.75;94821.13;5066769;28;20223;-26
2024/01/18 10:23:51;;;;;;;1.43;1.33;;;;;;;19.29;44.73;94823.69;5071419;28;20212;-31
2024/01/18 10:26:18;;;;;;;1.40;1.30;;;;;;;19.29;44.91;94825.38;5071816;28;20773;-29
2024/01/18 10:28:44;;;;;;;1.30;1.23;;;;;;;19.28;44.67;94829.63;5071294;28;20196;-28
2024/01/18 10:31:11;;;;;;;1.30;1.20;;;;;;;19.28;44.73;94822.00;5067822;28;20228;-27
2024/01/18 10:33:38;;;;;;;1.60;1.50;;;;;;;19.27;44.69;94824.56;5071007;28;20196;-27
2024/01/18 10:36:05;;;;;;;1.43;1.33;;;;;;;19.29;44.75;94822.81;5064387;28;20204;-30
2024/01/18 10:38:34;;;;;;;1.73;1.63;;;;;;;19.29;44.77;94820.28;5052362;28;20619;-31
2024/01/18 10:41:02;;;;;;;1.40;1.30;;;;;;;19.30;44.61;94819.44;5063294;28;20567;-26
2024/01/18 10:43:32;;;;;;;1.60;1.50;;;;;;;19.29;44.69;94816.03;5066105;28;20200;-38
2024/01/18 10:45:59;;;;;;;1.20;1.20;;;;;;;19.30;44.47;94825.34;5069131;28;20228;-29
2024/01/18 10:48:26;;;;;;;1.40;1.30;;;;;;;19.32;44.55;94815.16;5071071;28;20227;-29
2024/01/18 10:50:56;;;;;;;1.43;1.33;;;;;;;19.29;44.62;94822.81;5069370;28;20221;-27
2024/01/18 10:53:26;;;;;;;1.40;1.30;;;;;;;19.30;44.64;94812.63;5069520;28;20663;-30
2024/01/18 10:55:53;;;;;;;1.47;1.37;;;;;;;19.32;44.71;94826.22;5070672;28;20246;-35
2024/01/18 10:58:20;;;;;;;1.40;1.30;;;;;;;19.31;44.54;94826.22;5070175;28;20231;-28
2024/01/18 11:00:47;;;;;;;1.30;1.20;;;;;;;19.31;44.69;94818.56;5067317;28;20265;-29
2024/01/18 11:03:15;;;;;;;1.50;1.40;;;;;;;19.31;44.77;94828.75;5070550;28;20199;-28
2024/01/18 11:05:43;;;;;;;1.30;1.20;;;;;;;19.25;44.91;94824.53;5069105;28;20208;-28
2024/01/18 11:08:10;;;;;;;1.40;1.30;;;;;;;19.29;44.81;94822.81;5050376;28;20248;-35
2024/01/18 11:10:37;;;;;;;1.50;1.40;;;;;;;19.30;44.98;94829.63;5067573;28;20273;-30
2024/01/18 11:13:03;;;;;;;1.30;1.20;;;;;;;19.30;44.62;94829.63;5063124;28;20241;-27
2024/01/18 11:15:31;;;;;;;1.37;1.27;;;;;;;19.30;45.01;94816.91;5065158;28;20257;-29
2024/01/18 11:18:00;;;;;;;1.40;1.30;;;;;;;19.30;45.14;94822.00;5068721;28;20200;-31
2024/01/18 11:20:27;;;;;;;1.57;1.47;;;;;;;19.30;45.04;94809.25;5066635;28;20196;-27
2024/01/18 11:22:58;;;;;;;1.30;1.20;;;;;;;19.31;44.77;94813.50;5069556;28;20201;-26
2024/01/18 11:25:26;;;;;;;1.40;1.30;;;;;;;19.32;44.84;94810.94;5069522;28;20204;-29
2024/01/18 11:27:53;;;;;;;1.30;1.20;;;;;;;19.32;44.74;94808.38;5064521;28;20215;-29
2024/01/18 11:30:34;;;;;;;1.20;1.20;;;;;;;19.33;44.69;94799.06;5063046;28;20651;-31
2024/01/18 11:33:02;;;;;;;1.40;1.30;;;;;;;19.32;44.74;94794.81;5068834;28;20291;-28